^^
Station Historical Data
Daily Summary for July 7, 2017 Units:  Both    English   Metric
« Previous Day
Next Day »
Daily Weekly Monthly Yearly Custom
  High: Low: Average:
Temperature: 68.4 °F /  20.2 °C 42.1 °F /  5.6 °C 53.8 °F /  12.1 °C
Dew Point: 30.2 °F /  -1 °C 25.2 °F /  -3.8 °C 27.4 °F /  -2.6 °C
Humidity: 57% 21% 39%
Wind Speed: 8.9mph /  14.3km/h - 0.9mph /  1.4km/h
Wind Gust: 13.0mph /  20.9km/h - -
Wind- - SE
Pressure: 30.48 in /  1032.1 hPa 30.33 in /  1027 hPa -
Precipitation: 0.00 in /  0 mm    
Historical Graphs
 
 
Tabular Data for July 7, 2017
Time Temperature Dew Point Pressure Wind Wind Speed Wind Gust Humidity Rainfall Rate (Hourly) solar Conditions
00:03 45.9 °F /  7.7 °C 27.3 °F /  -2.6 °C 30.46in /  1031.4hPa Calm     48% 0.00in /  0mm 0.0 W/m2
00:09 45.9 °F /  7.7 °C 27.3 °F /  -2.6 °C 30.46in /  1031.4hPa Calm     48% 0.00in /  0mm 0.0 W/m2
00:15 45.9 °F /  7.7 °C 27.3 °F /  -2.6 °C 30.46in /  1031.4hPa Calm     48% 0.00in /  0mm 0.0 W/m2
00:22 45.7 °F /  7.6 °C 27.1 °F /  -2.7 °C 30.46in /  1031.4hPa Calm     48% 0.00in /  0mm 0.0 W/m2
00:28 45.5 °F /  7.5 °C 27.0 °F /  -2.8 °C 30.46in /  1031.4hPa Calm     48% 0.00in /  0mm 0.0 W/m2
00:34 45.3 °F /  7.4 °C 27.3 °F /  -2.6 °C 30.45in /  1031hPa Calm     49% 0.00in /  0mm 0.0 W/m2
00:40 45.3 °F /  7.4 °C 27.3 °F /  -2.6 °C 30.46in /  1031.4hPa Calm     49% 0.00in /  0mm 0.0 W/m2
00:46 45.1 °F /  7.3 °C 27.1 °F /  -2.7 °C 30.45in /  1031hPa Calm     49% 0.00in /  0mm 0.0 W/m2
00:52 45.1 °F /  7.3 °C 27.7 °F /  -2.4 °C 30.45in /  1031hPa Calm     50% 0.00in /  0mm 0.0 W/m2
00:59 45.0 °F /  7.2 °C 27.5 °F /  -2.5 °C 30.45in /  1031hPa Calm     50% 0.00in /  0mm 0.0 W/m2
01:05 45.0 °F /  7.2 °C 27.5 °F /  -2.5 °C 30.45in /  1031hPa Calm     50% 0.00in /  0mm 0.0 W/m2
01:11 45.0 °F /  7.2 °C 27.5 °F /  -2.5 °C 30.45in /  1031hPa Calm     50% 0.00in /  0mm 0.0 W/m2
01:17 45.0 °F /  7.2 °C 27.5 °F /  -2.5 °C 30.44in /  1030.7hPa Calm     50% 0.00in /  0mm 0.0 W/m2
01:23 45.0 °F /  7.2 °C 27.5 °F /  -2.5 °C 30.44in /  1030.7hPa Calm     50% 0.00in /  0mm 0.0 W/m2
01:29 45.0 °F /  7.2 °C 27.9 °F /  -2.3 °C 30.44in /  1030.7hPa Calm     51% 0.00in /  0mm 0.0 W/m2
01:35 45.0 °F /  7.2 °C 27.9 °F /  -2.3 °C 30.44in /  1030.7hPa Calm     51% 0.00in /  0mm 0.0 W/m2
01:42 44.8 °F /  7.1 °C 27.7 °F /  -2.4 °C 30.44in /  1030.7hPa Calm     51% 0.00in /  0mm 0.0 W/m2
01:48 44.8 °F /  7.1 °C 27.7 °F /  -2.4 °C 30.44in /  1030.7hPa Calm     51% 0.00in /  0mm 0.0 W/m2
01:54 44.6 °F /  7 °C 28.0 °F /  -2.2 °C 30.44in /  1030.7hPa Calm     52% 0.00in /  0mm 0.0 W/m2
02:00 44.4 °F /  6.9 °C 27.9 °F /  -2.3 °C 30.43in /  1030.4hPa Calm     52% 0.00in /  0mm 0.0 W/m2
02:06 44.4 °F /  6.9 °C 27.9 °F /  -2.3 °C 30.43in /  1030.4hPa Calm     52% 0.00in /  0mm 0.0 W/m2
02:12 44.4 °F /  6.9 °C 27.9 °F /  -2.3 °C 30.43in /  1030.4hPa Calm     52% 0.00in /  0mm 0.0 W/m2
02:19 44.2 °F /  6.8 °C 28.2 °F /  -2.1 °C 30.43in /  1030.4hPa Calm   1.0mph /  1.6km/h 53% 0.00in /  0mm 0.0 W/m2
02:25 44.2 °F /  6.8 °C 28.2 °F /  -2.1 °C 30.43in /  1030.4hPa Calm     53% 0.00in /  0mm 0.0 W/m2
02:31 44.1 °F /  6.7 °C 28.0 °F /  -2.2 °C 30.43in /  1030.4hPa Calm   1.0mph /  1.6km/h 53% 0.00in /  0mm 0.0 W/m2
02:37 44.1 °F /  6.7 °C 28.0 °F /  -2.2 °C 30.43in /  1030.4hPa Calm     53% 0.00in /  0mm 0.0 W/m2
02:43 44.1 °F /  6.7 °C 28.0 °F /  -2.2 °C 30.42in /  1030hPa Calm     53% 0.00in /  0mm 0.0 W/m2
02:49 44.1 °F /  6.7 °C 28.0 °F /  -2.2 °C 30.42in /  1030hPa Calm     53% 0.00in /  0mm 0.0 W/m2
02:55 43.9 °F /  6.6 °C 28.4 °F /  -2 °C 30.42in /  1030hPa Calm     54% 0.00in /  0mm 0.0 W/m2
03:01 43.9 °F /  6.6 °C 28.4 °F /  -2 °C 30.42in /  1030hPa Calm   1.0mph /  1.6km/h 54% 0.00in /  0mm 0.0 W/m2
03:08 43.7 °F /  6.5 °C 28.2 °F /  -2.1 °C 30.42in /  1030hPa Calm   1.0mph /  1.6km/h 54% 0.00in /  0mm 0.0 W/m2
03:14 43.5 °F /  6.4 °C 28.0 °F /  -2.2 °C 30.42in /  1030hPa Calm     54% 0.00in /  0mm 0.0 W/m2
03:20 43.5 °F /  6.4 °C 28.0 °F /  -2.2 °C 30.42in /  1030hPa Calm     54% 0.00in /  0mm 0.0 W/m2
03:26 43.3 °F /  6.3 °C 28.2 °F /  -2.1 °C 30.42in /  1030hPa Calm     55% 0.00in /  0mm 0.0 W/m2
03:32 43.3 °F /  6.3 °C 28.2 °F /  -2.1 °C 30.42in /  1030hPa Calm     55% 0.00in /  0mm 0.0 W/m2
03:38 43.2 °F /  6.2 °C 28.0 °F /  -2.2 °C 30.42in /  1030hPa Calm   1.0mph /  1.6km/h 55% 0.00in /  0mm 0.0 W/m2
03:44 43.2 °F /  6.2 °C 28.0 °F /  -2.2 °C 30.42in /  1030hPa Calm     55% 0.00in /  0mm 0.0 W/m2
03:50 43.0 °F /  6.1 °C 27.9 °F /  -2.3 °C 30.42in /  1030hPa Calm     55% 0.00in /  0mm 0.0 W/m2
03:57 43.0 °F /  6.1 °C 28.4 °F /  -2 °C 30.43in /  1030.4hPa Calm     56% 0.00in /  0mm 0.0 W/m2
04:03 42.8 °F /  6 °C 28.2 °F /  -2.1 °C 30.43in /  1030.4hPa Calm   1.0mph /  1.6km/h 56% 0.00in /  0mm 0.0 W/m2
04:09 42.6 °F /  5.9 °C 28.0 °F /  -2.2 °C 30.43in /  1030.4hPa Calm     56% 0.00in /  0mm 0.0 W/m2
04:15 42.6 °F /  5.9 °C 28.4 °F /  -2 °C 30.43in /  1030.4hPa Calm   1.0mph /  1.6km/h 57% 0.00in /  0mm 0.0 W/m2
04:21 42.6 °F /  5.9 °C 28.4 °F /  -2 °C 30.43in /  1030.4hPa Calm     57% 0.00in /  0mm 0.0 W/m2
04:27 42.6 °F /  5.9 °C 28.4 °F /  -2 °C 30.43in /  1030.4hPa Calm   1.0mph /  1.6km/h 57% 0.00in /  0mm 0.0 W/m2
04:33 42.6 °F /  5.9 °C 28.4 °F /  -2 °C 30.43in /  1030.4hPa Calm   1.0mph /  1.6km/h 57% 0.00in /  0mm 0.0 W/m2
04:40 42.4 °F /  5.8 °C 28.2 °F /  -2.1 °C 30.43in /  1030.4hPa Calm     57% 0.00in /  0mm 0.0 W/m2
04:46 42.4 °F /  5.8 °C 28.2 °F /  -2.1 °C 30.43in /  1030.4hPa Calm   2.0mph /  3.2km/h 57% 0.00in /  0mm 0.0 W/m2
04:52 42.4 °F /  5.8 °C 28.2 °F /  -2.1 °C 30.43in /  1030.4hPa Calm     57% 0.00in /  0mm 0.0 W/m2
04:58 42.6 °F /  5.9 °C 28.4 °F /  -2 °C 30.43in /  1030.4hPa Calm   1.0mph /  1.6km/h 57% 0.00in /  0mm 0.0 W/m2
05:04 42.6 °F /  5.9 °C 28.4 °F /  -2 °C 30.43in /  1030.4hPa Calm   1.0mph /  1.6km/h 57% 0.00in /  0mm 0.0 W/m2
05:10 42.6 °F /  5.9 °C 28.4 °F /  -2 °C 30.43in /  1030.4hPa East 0.9mph /  1.4km/h 1.0mph /  1.6km/h 57% 0.00in /  0mm 0.0 W/m2
05:16 42.4 °F /  5.8 °C 28.2 °F /  -2.1 °C 30.43in /  1030.4hPa Calm   1.0mph /  1.6km/h 57% 0.00in /  0mm 0.0 W/m2
05:23 42.4 °F /  5.8 °C 28.2 °F /  -2.1 °C 30.44in /  1030.7hPa Calm   2.0mph /  3.2km/h 57% 0.00in /  0mm 0.0 W/m2
05:29 42.3 °F /  5.7 °C 28.0 °F /  -2.2 °C 30.44in /  1030.7hPa Calm     57% 0.00in /  0mm 0.0 W/m2
05:35 42.3 °F /  5.7 °C 28.0 °F /  -2.2 °C 30.44in /  1030.7hPa Calm     57% 0.00in /  0mm 0.0 W/m2
05:41 42.3 °F /  5.7 °C 28.0 °F /  -2.2 °C 30.44in /  1030.7hPa Calm   1.0mph /  1.6km/h 57% 0.00in /  0mm 0.0 W/m2
05:47 42.3 °F /  5.7 °C 28.0 °F /  -2.2 °C 30.44in /  1030.7hPa Calm   2.0mph /  3.2km/h 57% 0.00in /  0mm 0.0 W/m2
05:53 42.1 °F /  5.6 °C 27.9 °F /  -2.3 °C 30.44in /  1030.7hPa Calm   1.0mph /  1.6km/h 57% 0.00in /  0mm 0.0 W/m2
05:59 42.1 °F /  5.6 °C 27.9 °F /  -2.3 °C 30.44in /  1030.7hPa Calm     57% 0.00in /  0mm 0.0 W/m2
06:06 42.1 °F /  5.6 °C 27.9 °F /  -2.3 °C 30.44in /  1030.7hPa Calm   1.0mph /  1.6km/h 57% 0.00in /  0mm 0.0 W/m2
06:12 42.1 °F /  5.6 °C 27.9 °F /  -2.3 °C 30.44in /  1030.7hPa Calm   1.0mph /  1.6km/h 57% 0.00in /  0mm 0.0 W/m2
06:18 42.1 °F /  5.6 °C 27.9 °F /  -2.3 °C 30.44in /  1030.7hPa Calm   2.0mph /  3.2km/h 57% 0.00in /  0mm 0.0 W/m2
06:24 42.1 °F /  5.6 °C 27.9 °F /  -2.3 °C 30.44in /  1030.7hPa East 0.9mph /  1.4km/h 1.0mph /  1.6km/h 57% 0.00in /  0mm 0.0 W/m2
06:30 42.1 °F /  5.6 °C 27.5 °F /  -2.5 °C 30.45in /  1031hPa Calm   1.0mph /  1.6km/h 56% 0.00in /  0mm 0.0 W/m2
06:36 42.1 °F /  5.6 °C 27.5 °F /  -2.5 °C 30.44in /  1030.7hPa Calm     56% 0.00in /  0mm 5.0 W/m2
06:42 42.1 °F /  5.6 °C 27.5 °F /  -2.5 °C 30.45in /  1031hPa Calm   2.0mph /  3.2km/h 56% 0.00in /  0mm 7.0 W/m2
06:49 42.1 °F /  5.6 °C 27.5 °F /  -2.5 °C 30.45in /  1031hPa Calm   1.0mph /  1.6km/h 56% 0.00in /  0mm 9.0 W/m2
06:55 42.1 °F /  5.6 °C 27.5 °F /  -2.5 °C 30.45in /  1031hPa Calm     56% 0.00in /  0mm 11.0 W/m2
07:01 42.1 °F /  5.6 °C 27.5 °F /  -2.5 °C 30.45in /  1031hPa Calm     56% 0.00in /  0mm 12.0 W/m2
07:07 42.3 °F /  5.7 °C 27.7 °F /  -2.4 °C 30.46in /  1031.4hPa Calm     56% 0.00in /  0mm 14.0 W/m2
07:13 42.4 °F /  5.8 °C 27.5 °F /  -2.5 °C 30.46in /  1031.4hPa Calm   2.0mph /  3.2km/h 55% 0.00in /  0mm 16.0 W/m2
07:19 43.0 °F /  6.1 °C 27.9 °F /  -2.3 °C 30.46in /  1031.4hPa Calm   1.0mph /  1.6km/h 55% 0.00in /  0mm 18.0 W/m2
07:26 43.3 °F /  6.3 °C 27.9 °F /  -2.3 °C 30.46in /  1031.4hPa Calm   1.0mph /  1.6km/h 54% 0.00in /  0mm 18.0 W/m2
07:32 43.9 °F /  6.6 °C 27.9 °F /  -2.3 °C 30.46in /  1031.4hPa Calm   1.0mph /  1.6km/h 53% 0.00in /  0mm 19.0 W/m2
07:38 44.4 °F /  6.9 °C 27.9 °F /  -2.3 °C 30.46in /  1031.4hPa Calm   3.0mph /  4.8km/h 52% 0.00in /  0mm 21.0 W/m2
07:44 45.1 °F /  7.3 °C 28.0 °F /  -2.2 °C 30.46in /  1031.4hPa Calm   2.0mph /  3.2km/h 51% 0.00in /  0mm 23.0 W/m2
07:50 45.9 °F /  7.7 °C 28.2 °F /  -2.1 °C 30.47in /  1031.7hPa Calm   3.0mph /  4.8km/h 50% 0.00in /  0mm 25.0 W/m2
07:56 47.1 °F /  8.4 °C 28.4 °F /  -2 °C 30.47in /  1031.7hPa Calm   3.0mph /  4.8km/h 48% 0.00in /  0mm 26.0 W/m2
08:02 49.1 °F /  9.5 °C 29.1 °F /  -1.6 °C 30.47in /  1031.7hPa Calm   2.0mph /  3.2km/h 46% 0.00in /  0mm 44.0 W/m2
08:09 50.7 °F /  10.4 °C 29.7 °F /  -1.3 °C 30.47in /  1031.7hPa Calm   3.0mph /  4.8km/h 44% 0.00in /  0mm 292.0 W/m2
08:15 52.5 °F /  11.4 °C 29.5 °F /  -1.4 °C 30.47in /  1031.7hPa Calm   2.0mph /  3.2km/h 41% 0.00in /  0mm 311.0 W/m2
08:21 54.0 °F /  12.2 °C 29.5 °F /  -1.4 °C 30.47in /  1031.7hPa ENE 2.0mph /  3.2km/h 4.0mph /  6.4km/h 39% 0.00in /  0mm 330.0 W/m2
08:27 55.6 °F /  13.1 °C 29.7 °F /  -1.3 °C 30.48in /  1032.1hPa Calm   1.0mph /  1.6km/h 37% 0.00in /  0mm 350.0 W/m2
08:33 56.8 °F /  13.8 °C 29.5 °F /  -1.4 °C 30.47in /  1031.7hPa NE 4.9mph /  7.9km/h 7.0mph /  11.3km/h 35% 0.00in /  0mm 367.0 W/m2
08:39 58.3 °F /  14.6 °C 30.0 °F /  -1.1 °C 30.47in /  1031.7hPa NNE 2.9mph /  4.7km/h 7.0mph /  11.3km/h 34% 0.00in /  0mm 387.0 W/m2
08:45 59.0 °F /  15 °C 30.0 °F /  -1.1 °C 30.48in /  1032.1hPa ENE 2.9mph /  4.7km/h 5.0mph /  8km/h 33% 0.00in /  0mm 408.0 W/m2
08:52 59.7 °F /  15.4 °C 29.8 °F /  -1.2 °C 30.48in /  1032.1hPa North 2.0mph /  3.2km/h 2.0mph /  3.2km/h 32% 0.00in /  0mm 425.0 W/m2
08:58 60.6 °F /  15.9 °C 29.8 °F /  -1.2 °C 30.48in /  1032.1hPa NNW 2.9mph /  4.7km/h 5.0mph /  8km/h 31% 0.00in /  0mm 443.0 W/m2
09:04 61.2 °F /  16.2 °C 30.2 °F /  -1 °C 30.48in /  1032.1hPa NNE 0.9mph /  1.4km/h 5.0mph /  8km/h 31% 0.00in /  0mm 459.0 W/m2
09:10 61.5 °F /  16.4 °C 28.9 °F /  -1.7 °C 30.48in /  1032.1hPa East 4.9mph /  7.9km/h 11.0mph /  17.7km/h 29% 0.00in /  0mm 476.0 W/m2
09:16 61.5 °F /  16.4 °C 28.9 °F /  -1.7 °C 30.48in /  1032.1hPa ENE 2.9mph /  4.7km/h 13.0mph /  20.9km/h 29% 0.00in /  0mm 492.0 W/m2
09:22 61.5 °F /  16.4 °C 28.0 °F /  -2.2 °C 30.48in /  1032.1hPa North 8.9mph /  14.3km/h 10.0mph /  16.1km/h 28% 0.00in /  0mm 508.0 W/m2
09:28 61.3 °F /  16.3 °C 28.8 °F /  -1.8 °C 30.48in /  1032.1hPa NNE 4.0mph /  6.4km/h 7.0mph /  11.3km/h 29% 0.00in /  0mm 522.0 W/m2
09:35 61.5 °F /  16.4 °C 28.0 °F /  -2.2 °C 30.48in /  1032.1hPa ENE 2.9mph /  4.7km/h 7.0mph /  11.3km/h 28% 0.00in /  0mm 536.0 W/m2
09:41 62.1 °F /  16.7 °C 27.7 °F /  -2.4 °C 30.48in /  1032.1hPa NE 2.9mph /  4.7km/h 12.0mph /  19.3km/h 27% 0.00in /  0mm 552.0 W/m2
09:47 62.1 °F /  16.7 °C 27.7 °F /  -2.4 °C 30.48in /  1032.1hPa ENE 4.0mph /  6.4km/h 10.0mph /  16.1km/h 27% 0.00in /  0mm 563.0 W/m2
09:53 62.1 °F /  16.7 °C 28.6 °F /  -1.9 °C 30.48in /  1032.1hPa North 6.0mph /  9.7km/h 9.0mph /  14.5km/h 28% 0.00in /  0mm 578.0 W/m2
09:59 62.2 °F /  16.8 °C 27.9 °F /  -2.3 °C 30.48in /  1032.1hPa ENE 4.9mph /  7.9km/h 7.0mph /  11.3km/h 27% 0.00in /  0mm 587.0 W/m2
10:05 62.6 °F /  17 °C 28.2 °F /  -2.1 °C 30.47in /  1031.7hPa North 4.0mph /  6.4km/h 9.0mph /  14.5km/h 27% 0.00in /  0mm 601.0 W/m2
10:11 63.0 °F /  17.2 °C 28.4 °F /  -2 °C 30.47in /  1031.7hPa NNE 2.9mph /  4.7km/h 9.0mph /  14.5km/h 27% 0.00in /  0mm 612.0 W/m2
10:17 63.3 °F /  17.4 °C 27.9 °F /  -2.3 °C 30.46in /  1031.4hPa ENE 2.0mph /  3.2km/h 5.0mph /  8km/h 26% 0.00in /  0mm 621.0 W/m2
10:23 63.3 °F /  17.4 °C 27.9 °F /  -2.3 °C 30.47in /  1031.7hPa NNE 4.9mph /  7.9km/h 7.0mph /  11.3km/h 26% 0.00in /  0mm 631.0 W/m2
10:30 63.3 °F /  17.4 °C 27.9 °F /  -2.3 °C 30.46in /  1031.4hPa ENE 4.9mph /  7.9km/h 8.0mph /  12.9km/h 26% 0.00in /  0mm 638.0 W/m2
10:36 63.3 °F /  17.4 °C 28.8 °F /  -1.8 °C 30.46in /  1031.4hPa North 4.0mph /  6.4km/h 4.0mph /  6.4km/h 27% 0.00in /  0mm 647.0 W/m2
10:42 63.7 °F /  17.6 °C 28.2 °F /  -2.1 °C 30.45in /  1031hPa NE 2.9mph /  4.7km/h 9.0mph /  14.5km/h 26% 0.00in /  0mm 654.0 W/m2
10:48 63.7 °F /  17.6 °C 28.2 °F /  -2.1 °C 30.45in /  1031hPa NNW 6.9mph /  11.1km/h 12.0mph /  19.3km/h 26% 0.00in /  0mm 661.0 W/m2
10:54 63.7 °F /  17.6 °C 28.2 °F /  -2.1 °C 30.45in /  1031hPa North 6.0mph /  9.7km/h 9.0mph /  14.5km/h 26% 0.00in /  0mm 666.0 W/m2
11:00 63.9 °F /  17.7 °C 27.3 °F /  -2.6 °C 30.44in /  1030.7hPa North 2.9mph /  4.7km/h 7.0mph /  11.3km/h 25% 0.00in /  0mm 675.0 W/m2
11:06 64.2 °F /  17.9 °C 27.7 °F /  -2.4 °C 30.44in /  1030.7hPa North 6.0mph /  9.7km/h 7.0mph /  11.3km/h 25% 0.00in /  0mm 680.0 W/m2
11:13 64.8 °F /  18.2 °C 28.0 °F /  -2.2 °C 30.44in /  1030.7hPa NNE 4.9mph /  7.9km/h 12.0mph /  19.3km/h 25% 0.00in /  0mm 684.0 W/m2
11:19 64.6 °F /  18.1 °C 28.0 °F /  -2.2 °C 30.44in /  1030.7hPa NNW 0.9mph /  1.4km/h 2.0mph /  3.2km/h 25% 0.00in /  0mm 686.0 W/m2
11:25 64.9 °F /  18.3 °C 28.2 °F /  -2.1 °C 30.43in /  1030.4hPa North 4.0mph /  6.4km/h 7.0mph /  11.3km/h 25% 0.00in /  0mm 691.0 W/m2
11:31 65.3 °F /  18.5 °C 28.6 °F /  -1.9 °C 30.43in /  1030.4hPa NNW 0.9mph /  1.4km/h 5.0mph /  8km/h 25% 0.00in /  0mm 693.0 W/m2
11:37 65.5 °F /  18.6 °C 27.7 °F /  -2.4 °C 30.43in /  1030.4hPa North 2.9mph /  4.7km/h 10.0mph /  16.1km/h 24% 0.00in /  0mm 694.0 W/m2
11:43 65.5 °F /  18.6 °C 27.7 °F /  -2.4 °C 30.42in /  1030hPa NNW 0.9mph /  1.4km/h 8.0mph /  12.9km/h 24% 0.00in /  0mm 698.0 W/m2
11:49 65.5 °F /  18.6 °C 27.7 °F /  -2.4 °C 30.42in /  1030hPa NE 0.9mph /  1.4km/h 6.0mph /  9.7km/h 24% 0.00in /  0mm 694.0 W/m2
11:56 65.7 °F /  18.7 °C 28.9 °F /  -1.7 °C 30.42in /  1030hPa Calm   5.0mph /  8km/h 25% 0.00in /  0mm 694.0 W/m2
12:02 66.0 °F /  18.9 °C 28.2 °F /  -2.1 °C 30.41in /  1029.7hPa NNE 4.0mph /  6.4km/h 4.0mph /  6.4km/h 24% 0.00in /  0mm 698.0 W/m2
12:08 66.0 °F /  18.9 °C 27.1 °F /  -2.7 °C 30.41in /  1029.7hPa Calm   5.0mph /  8km/h 23% 0.00in /  0mm 694.0 W/m2
12:14 66.0 °F /  18.9 °C 27.1 °F /  -2.7 °C 30.41in /  1029.7hPa North 6.0mph /  9.7km/h 6.0mph /  9.7km/h 23% 0.00in /  0mm 693.0 W/m2
12:20 66.4 °F /  19.1 °C 27.5 °F /  -2.5 °C 30.39in /  1029hPa NNE 6.9mph /  11.1km/h 7.0mph /  11.3km/h 23% 0.00in /  0mm 691.0 W/m2
12:26 66.4 °F /  19.1 °C 26.4 °F /  -3.1 °C 30.39in /  1029hPa NNW 8.1mph /  13km/h 9.0mph /  14.5km/h 22% 0.00in /  0mm 687.0 W/m2
12:32 66.6 °F /  19.2 °C 26.6 °F /  -3 °C 30.39in /  1029hPa NNW 2.0mph /  3.2km/h 4.0mph /  6.4km/h 22% 0.00in /  0mm 680.0 W/m2
12:38 66.7 °F /  19.3 °C 26.6 °F /  -3 °C 30.38in /  1028.7hPa NNE 2.0mph /  3.2km/h 3.0mph /  4.8km/h 22% 0.00in /  0mm 680.0 W/m2
12:45 66.7 °F /  19.3 °C 26.6 °F /  -3 °C 30.38in /  1028.7hPa Calm   6.0mph /  9.7km/h 22% 0.00in /  0mm 673.0 W/m2
12:51 66.9 °F /  19.4 °C 25.7 °F /  -3.5 °C 30.37in /  1028.3hPa NNW 0.9mph /  1.4km/h 9.0mph /  14.5km/h 21% 0.00in /  0mm 668.0 W/m2
12:57 67.1 °F /  19.5 °C 27.0 °F /  -2.8 °C 30.37in /  1028.3hPa Calm   4.0mph /  6.4km/h 22% 0.00in /  0mm 657.0 W/m2
13:03 67.3 °F /  19.6 °C 26.1 °F /  -3.3 °C 30.36in /  1028hPa Calm   7.0mph /  11.3km/h 21% 0.00in /  0mm 654.0 W/m2
13:09 67.3 °F /  19.6 °C 27.1 °F /  -2.7 °C 30.36in /  1028hPa NNW 2.9mph /  4.7km/h 5.0mph /  8km/h 22% 0.00in /  0mm 643.0 W/m2
13:15 67.5 °F /  19.7 °C 27.3 °F /  -2.6 °C 30.36in /  1028hPa West 0.9mph /  1.4km/h 3.0mph /  4.8km/h 22% 0.00in /  0mm 636.0 W/m2
13:21 67.5 °F /  19.7 °C 27.3 °F /  -2.6 °C 30.36in /  1028hPa Calm   1.0mph /  1.6km/h 22% 0.00in /  0mm 626.0 W/m2
13:27 67.5 °F /  19.7 °C 27.3 °F /  -2.6 °C 30.36in /  1028hPa NNW 2.0mph /  3.2km/h 6.0mph /  9.7km/h 22% 0.00in /  0mm 615.0 W/m2
13:34 67.6 °F /  19.8 °C 27.5 °F /  -2.5 °C 30.35in /  1027.7hPa Calm   4.0mph /  6.4km/h 22% 0.00in /  0mm 606.0 W/m2
13:40 67.6 °F /  19.8 °C 27.5 °F /  -2.5 °C 30.35in /  1027.7hPa Calm   3.0mph /  4.8km/h 22% 0.00in /  0mm 592.0 W/m2
13:46 67.8 °F /  19.9 °C 26.4 °F /  -3.1 °C 30.35in /  1027.7hPa NE 4.0mph /  6.4km/h 8.0mph /  12.9km/h 21% 0.00in /  0mm 584.0 W/m2
13:52 68.2 °F /  20.1 °C 26.8 °F /  -2.9 °C 30.35in /  1027.7hPa North 2.9mph /  4.7km/h 9.0mph /  14.5km/h 21% 0.00in /  0mm 570.0 W/m2
13:58 68.2 °F /  20.1 °C 26.8 °F /  -2.9 °C 30.35in /  1027.7hPa ENE 2.9mph /  4.7km/h 4.0mph /  6.4km/h 21% 0.00in /  0mm 555.0 W/m2
14:04 68.0 °F /  20 °C 26.6 °F /  -3 °C 30.34in /  1027.3hPa Calm   1.0mph /  1.6km/h 21% 0.00in /  0mm 545.0 W/m2
14:10 68.2 °F /  20.1 °C 26.8 °F /  -2.9 °C 30.34in /  1027.3hPa Calm   7.0mph /  11.3km/h 21% 0.00in /  0mm 531.0 W/m2
14:17 68.2 °F /  20.1 °C 26.8 °F /  -2.9 °C 30.34in /  1027.3hPa Calm   8.0mph /  12.9km/h 21% 0.00in /  0mm 517.0 W/m2
14:23 68.2 °F /  20.1 °C 27.9 °F /  -2.3 °C 30.33in /  1027hPa NNE 6.9mph /  11.1km/h 7.0mph /  11.3km/h 22% 0.00in /  0mm 497.0 W/m2
14:29 68.2 °F /  20.1 °C 27.9 °F /  -2.3 °C 30.33in /  1027hPa Calm   4.0mph /  6.4km/h 22% 0.00in /  0mm 483.0 W/m2
14:35 68.2 °F /  20.1 °C 26.8 °F /  -2.9 °C 30.33in /  1027hPa NNE 4.0mph /  6.4km/h 7.0mph /  11.3km/h 21% 0.00in /  0mm 468.0 W/m2
14:41 68.2 °F /  20.1 °C 26.8 °F /  -2.9 °C 30.33in /  1027hPa ENE 0.9mph /  1.4km/h 4.0mph /  6.4km/h 21% 0.00in /  0mm 455.0 W/m2
14:47 68.2 °F /  20.1 °C 26.8 °F /  -2.9 °C 30.33in /  1027hPa Calm   3.0mph /  4.8km/h 21% 0.00in /  0mm 438.0 W/m2
14:53 68.4 °F /  20.2 °C 27.0 °F /  -2.8 °C 30.33in /  1027hPa NW 4.9mph /  7.9km/h 5.0mph /  8km/h 21% 0.00in /  0mm 420.0 W/m2
14:59 68.4 °F /  20.2 °C 27.0 °F /  -2.8 °C 30.33in /  1027hPa Calm   3.0mph /  4.8km/h 21% 0.00in /  0mm 404.0 W/m2
15:05 68.4 °F /  20.2 °C 27.0 °F /  -2.8 °C 30.33in /  1027hPa ENE 0.9mph /  1.4km/h 3.0mph /  4.8km/h 21% 0.00in /  0mm 381.0 W/m2
15:12 68.0 °F /  20 °C 26.6 °F /  -3 °C 30.33in /  1027hPa Calm   3.0mph /  4.8km/h 21% 0.00in /  0mm 364.0 W/m2
15:18 67.8 °F /  19.9 °C 26.4 °F /  -3.1 °C 30.33in /  1027hPa NE 6.0mph /  9.7km/h 7.0mph /  11.3km/h 21% 0.00in /  0mm 346.0 W/m2
15:24 67.5 °F /  19.7 °C 26.2 °F /  -3.2 °C 30.33in /  1027hPa NE 4.0mph /  6.4km/h 5.0mph /  8km/h 21% 0.00in /  0mm 327.0 W/m2
15:30 67.3 °F /  19.6 °C 26.1 °F /  -3.3 °C 30.33in /  1027hPa NNE 2.0mph /  3.2km/h 7.0mph /  11.3km/h 21% 0.00in /  0mm 47.0 W/m2
15:36 66.9 °F /  19.4 °C 25.7 °F /  -3.5 °C 30.33in /  1027hPa ENE 0.9mph /  1.4km/h 6.0mph /  9.7km/h 21% 0.00in /  0mm 42.0 W/m2
15:42 66.7 °F /  19.3 °C 25.5 °F /  -3.6 °C 30.33in /  1027hPa NW 2.0mph /  3.2km/h 4.0mph /  6.4km/h 21% 0.00in /  0mm 40.0 W/m2
15:48 66.4 °F /  19.1 °C 26.4 °F /  -3.1 °C 30.34in /  1027.3hPa North 2.0mph /  3.2km/h 7.0mph /  11.3km/h 22% 0.00in /  0mm 39.0 W/m2
15:54 66.0 °F /  18.9 °C 26.1 °F /  -3.3 °C 30.34in /  1027.3hPa NW 2.0mph /  3.2km/h 2.0mph /  3.2km/h 22% 0.00in /  0mm 37.0 W/m2
16:00 65.8 °F /  18.8 °C 25.9 °F /  -3.4 °C 30.34in /  1027.3hPa Calm   2.0mph /  3.2km/h 22% 0.00in /  0mm 35.0 W/m2
16:07 65.7 °F /  18.7 °C 26.8 °F /  -2.9 °C 30.34in /  1027.3hPa Calm   6.0mph /  9.7km/h 23% 0.00in /  0mm 32.0 W/m2
16:13 65.3 °F /  18.5 °C 26.6 °F /  -3 °C 30.34in /  1027.3hPa NNE 2.0mph /  3.2km/h 8.0mph /  12.9km/h 23% 0.00in /  0mm 28.0 W/m2
16:19 65.1 °F /  18.4 °C 26.4 °F /  -3.1 °C 30.34in /  1027.3hPa ENE 0.9mph /  1.4km/h 7.0mph /  11.3km/h 23% 0.00in /  0mm 25.0 W/m2
16:25 64.8 °F /  18.2 °C 26.1 °F /  -3.3 °C 30.34in /  1027.3hPa NNW 0.9mph /  1.4km/h 5.0mph /  8km/h 23% 0.00in /  0mm 23.0 W/m2
16:31 64.6 °F /  18.1 °C 25.9 °F /  -3.4 °C 30.35in /  1027.7hPa NNW 0.9mph /  1.4km/h 4.0mph /  6.4km/h 23% 0.00in /  0mm 21.0 W/m2
16:37 64.2 °F /  17.9 °C 26.6 °F /  -3 °C 30.35in /  1027.7hPa Calm   4.0mph /  6.4km/h 24% 0.00in /  0mm 19.0 W/m2
16:43 64.0 °F /  17.8 °C 27.5 °F /  -2.5 °C 30.35in /  1027.7hPa Calm   1.0mph /  1.6km/h 25% 0.00in /  0mm 18.0 W/m2
16:49 63.9 °F /  17.7 °C 26.4 °F /  -3.1 °C 30.36in /  1028hPa NE 2.0mph /  3.2km/h 5.0mph /  8km/h 24% 0.00in /  0mm 16.0 W/m2
16:56 63.7 °F /  17.6 °C 26.2 °F /  -3.2 °C 30.36in /  1028hPa Calm   5.0mph /  8km/h 24% 0.00in /  0mm 14.0 W/m2
17:02 63.3 °F /  17.4 °C 27.0 °F /  -2.8 °C 30.36in /  1028hPa NE 0.9mph /  1.4km/h 3.0mph /  4.8km/h 25% 0.00in /  0mm 12.0 W/m2
17:08 63.1 °F /  17.3 °C 26.8 °F /  -2.9 °C 30.36in /  1028hPa Calm   2.0mph /  3.2km/h 25% 0.00in /  0mm 9.0 W/m2
17:14 62.8 °F /  17.1 °C 26.4 °F /  -3.1 °C 30.36in /  1028hPa Calm     25% 0.00in /  0mm 7.0 W/m2
17:20 62.4 °F /  16.9 °C 27.1 °F /  -2.7 °C 30.36in /  1028hPa Calm   1.0mph /  1.6km/h 26% 0.00in /  0mm 0.0 W/m2
17:26 62.1 °F /  16.7 °C 26.8 °F /  -2.9 °C 30.37in /  1028.3hPa Calm     26% 0.00in /  0mm 0.0 W/m2
17:33 61.3 °F /  16.3 °C 26.2 °F /  -3.2 °C 30.37in /  1028.3hPa Calm     26% 0.00in /  0mm 0.0 W/m2
17:41 61.0 °F /  16.1 °C 26.8 °F /  -2.9 °C 30.37in /  1028.3hPa Calm     27% 0.00in /  0mm 0.0 W/m2
17:47 60.1 °F /  15.6 °C 26.1 °F /  -3.3 °C 30.37in /  1028.3hPa Calm     27% 0.00in /  0mm 0.0 W/m2
17:54 59.4 °F /  15.2 °C 26.2 °F /  -3.2 °C 30.38in /  1028.7hPa Calm     28% 0.00in /  0mm 0.0 W/m2
18:00 58.8 °F /  14.9 °C 26.6 °F /  -3 °C 30.38in /  1028.7hPa Calm     29% 0.00in /  0mm 0.0 W/m2
18:12 57.4 °F /  14.1 °C 26.2 °F /  -3.2 °C 30.38in /  1028.7hPa Calm     30% 0.00in /  0mm 0.0 W/m2
18:18 56.7 °F /  13.7 °C 25.5 °F /  -3.6 °C 30.38in /  1028.7hPa Calm     30% 0.00in /  0mm 0.0 W/m2
18:24 56.1 °F /  13.4 °C 25.9 °F /  -3.4 °C 30.38in /  1028.7hPa Calm     31% 0.00in /  0mm 0.0 W/m2
18:30 55.8 °F /  13.2 °C 25.5 °F /  -3.6 °C 30.39in /  1029hPa Calm     31% 0.00in /  0mm 0.0 W/m2
18:36 55.2 °F /  12.9 °C 25.9 °F /  -3.4 °C 30.39in /  1029hPa Calm   1.0mph /  1.6km/h 32% 0.00in /  0mm 0.0 W/m2
18:42 54.9 °F /  12.7 °C 25.5 °F /  -3.6 °C 30.39in /  1029hPa Calm     32% 0.00in /  0mm 0.0 W/m2
18:48 54.3 °F /  12.4 °C 25.9 °F /  -3.4 °C 30.39in /  1029hPa Calm     33% 0.00in /  0mm 0.0 W/m2
18:54 54.1 °F /  12.3 °C 25.7 °F /  -3.5 °C 30.39in /  1029hPa Calm     33% 0.00in /  0mm 0.0 W/m2
19:01 53.8 °F /  12.1 °C 26.1 °F /  -3.3 °C 30.39in /  1029hPa Calm   1.0mph /  1.6km/h 34% 0.00in /  0mm 0.0 W/m2
19:07 53.4 °F /  11.9 °C 25.7 °F /  -3.5 °C 30.39in /  1029hPa Calm   1.0mph /  1.6km/h 34% 0.00in /  0mm 0.0 W/m2
19:13 53.2 °F /  11.8 °C 25.5 °F /  -3.6 °C 30.39in /  1029hPa Calm   1.0mph /  1.6km/h 34% 0.00in /  0mm 0.0 W/m2
19:19 52.9 °F /  11.6 °C 25.3 °F /  -3.7 °C 30.39in /  1029hPa Calm     34% 0.00in /  0mm 0.0 W/m2
19:25 52.5 °F /  11.4 °C 25.7 °F /  -3.5 °C 30.39in /  1029hPa Calm     35% 0.00in /  0mm 0.0 W/m2
19:31 52.3 °F /  11.3 °C 25.5 °F /  -3.6 °C 30.39in /  1029hPa Calm     35% 0.00in /  0mm 0.0 W/m2
19:37 52.0 °F /  11.1 °C 25.2 °F /  -3.8 °C 30.40in /  1029.3hPa Calm     35% 0.00in /  0mm 0.0 W/m2
19:44 51.6 °F /  10.9 °C 25.5 °F /  -3.6 °C 30.40in /  1029.3hPa Calm   2.0mph /  3.2km/h 36% 0.00in /  0mm 0.0 W/m2
19:50 51.4 °F /  10.8 °C 25.3 °F /  -3.7 °C 30.40in /  1029.3hPa Calm     36% 0.00in /  0mm 0.0 W/m2
19:56 51.3 °F /  10.7 °C 25.2 °F /  -3.8 °C 30.40in /  1029.3hPa Calm   1.0mph /  1.6km/h 36% 0.00in /  0mm 0.0 W/m2
20:02 51.1 °F /  10.6 °C 25.7 °F /  -3.5 °C 30.40in /  1029.3hPa Calm   2.0mph /  3.2km/h 37% 0.00in /  0mm 0.0 W/m2
20:08 50.9 °F /  10.5 °C 25.5 °F /  -3.6 °C 30.40in /  1029.3hPa Calm     37% 0.00in /  0mm 0.0 W/m2
20:14 50.7 °F /  10.4 °C 25.3 °F /  -3.7 °C 30.40in /  1029.3hPa Calm     37% 0.00in /  0mm 0.0 W/m2
20:20 50.7 °F /  10.4 °C 25.3 °F /  -3.7 °C 30.40in /  1029.3hPa Calm   2.0mph /  3.2km/h 37% 0.00in /  0mm 0.0 W/m2
20:26 50.5 °F /  10.3 °C 25.9 °F /  -3.4 °C 30.40in /  1029.3hPa Calm     38% 0.00in /  0mm 0.0 W/m2
20:33 50.4 °F /  10.2 °C 25.7 °F /  -3.5 °C 30.40in /  1029.3hPa Calm   1.0mph /  1.6km/h 38% 0.00in /  0mm 0.0 W/m2
20:39 50.4 °F /  10.2 °C 25.7 °F /  -3.5 °C 30.41in /  1029.7hPa Calm   2.0mph /  3.2km/h 38% 0.00in /  0mm 0.0 W/m2
20:45 50.4 °F /  10.2 °C 25.7 °F /  -3.5 °C 30.41in /  1029.7hPa Calm   2.0mph /  3.2km/h 38% 0.00in /  0mm 0.0 W/m2
20:51 50.4 °F /  10.2 °C 26.4 °F /  -3.1 °C 30.41in /  1029.7hPa Calm   1.0mph /  1.6km/h 39% 0.00in /  0mm 0.0 W/m2
20:57 50.4 °F /  10.2 °C 26.4 °F /  -3.1 °C 30.41in /  1029.7hPa Calm   1.0mph /  1.6km/h 39% 0.00in /  0mm 0.0 W/m2
21:03 50.4 °F /  10.2 °C 26.4 °F /  -3.1 °C 30.41in /  1029.7hPa Calm   1.0mph /  1.6km/h 39% 0.00in /  0mm 0.0 W/m2
21:09 50.4 °F /  10.2 °C 27.0 °F /  -2.8 °C 30.41in /  1029.7hPa Calm     40% 0.00in /  0mm 0.0 W/m2
21:15 50.2 °F /  10.1 °C 26.8 °F /  -2.9 °C 30.41in /  1029.7hPa Calm     40% 0.00in /  0mm 0.0 W/m2
21:21 50.2 °F /  10.1 °C 26.8 °F /  -2.9 °C 30.41in /  1029.7hPa Calm     40% 0.00in /  0mm 0.0 W/m2
21:28 49.8 °F /  9.9 °C 27.1 °F /  -2.7 °C 30.41in /  1029.7hPa Calm     41% 0.00in /  0mm 0.0 W/m2
21:34 49.6 °F /  9.8 °C 27.0 °F /  -2.8 °C 30.41in /  1029.7hPa Calm     41% 0.00in /  0mm 0.0 W/m2
21:40 49.5 °F /  9.7 °C 27.3 °F /  -2.6 °C 30.41in /  1029.7hPa Calm     42% 0.00in /  0mm 0.0 W/m2
21:46 49.3 °F /  9.6 °C 27.1 °F /  -2.7 °C 30.41in /  1029.7hPa Calm     42% 0.00in /  0mm 0.0 W/m2
21:52 48.9 °F /  9.4 °C 27.3 °F /  -2.6 °C 30.41in /  1029.7hPa Calm     43% 0.00in /  0mm 0.0 W/m2
21:58 48.6 °F /  9.2 °C 27.1 °F /  -2.7 °C 30.41in /  1029.7hPa Calm     43% 0.00in /  0mm 0.0 W/m2
22:04 48.0 °F /  8.9 °C 27.1 °F /  -2.7 °C 30.41in /  1029.7hPa Calm     44% 0.00in /  0mm 0.0 W/m2
22:11 47.7 °F /  8.7 °C 27.3 °F /  -2.6 °C 30.41in /  1029.7hPa Calm     45% 0.00in /  0mm 0.0 W/m2
22:17 47.3 °F /  8.5 °C 27.5 °F /  -2.5 °C 30.41in /  1029.7hPa Calm     46% 0.00in /  0mm 0.0 W/m2
22:23 46.9 °F /  8.3 °C 27.3 °F /  -2.6 °C 30.41in /  1029.7hPa Calm     46% 0.00in /  0mm 0.0 W/m2
22:29 46.8 °F /  8.2 °C 27.7 °F /  -2.4 °C 30.41in /  1029.7hPa Calm   1.0mph /  1.6km/h 47% 0.00in /  0mm 0.0 W/m2
22:35 46.8 °F /  8.2 °C 27.7 °F /  -2.4 °C 30.41in /  1029.7hPa Calm     47% 0.00in /  0mm 0.0 W/m2
22:41 46.8 °F /  8.2 °C 28.0 °F /  -2.2 °C 30.41in /  1029.7hPa Calm   1.0mph /  1.6km/h 48% 0.00in /  0mm 0.0 W/m2
22:47 46.6 °F /  8.1 °C 27.9 °F /  -2.3 °C 30.41in /  1029.7hPa Calm     48% 0.00in /  0mm 0.0 W/m2
22:54 46.6 °F /  8.1 °C 27.9 °F /  -2.3 °C 30.41in /  1029.7hPa Calm     48% 0.00in /  0mm 0.0 W/m2
23:00 46.6 °F /  8.1 °C 27.9 °F /  -2.3 °C 30.40in /  1029.3hPa Calm     48% 0.00in /  0mm 0.0 W/m2
23:06 46.6 °F /  8.1 °C 27.9 °F /  -2.3 °C 30.40in /  1029.3hPa Calm   1.0mph /  1.6km/h 48% 0.00in /  0mm 0.0 W/m2
23:12 46.2 °F /  7.9 °C 27.7 °F /  -2.4 °C 30.40in /  1029.3hPa Calm   1.0mph /  1.6km/h 48% 0.00in /  0mm 0.0 W/m2
23:18 46.2 °F /  7.9 °C 28.0 °F /  -2.2 °C 30.40in /  1029.3hPa Calm     49% 0.00in /  0mm 0.0 W/m2
23:24 46.0 °F /  7.8 °C 27.9 °F /  -2.3 °C 30.40in /  1029.3hPa Calm     49% 0.00in /  0mm 0.0 W/m2
23:30 45.9 °F /  7.7 °C 27.9 °F /  -2.3 °C 30.40in /  1029.3hPa Calm   1.0mph /  1.6km/h 49% 0.00in /  0mm 0.0 W/m2
23:36 45.9 °F /  7.7 °C 28.2 °F /  -2.1 °C 30.40in /  1029.3hPa Calm     50% 0.00in /  0mm 0.0 W/m2
23:42 45.9 °F /  7.7 °C 27.9 °F /  -2.3 °C 30.40in /  1029.3hPa Calm   1.0mph /  1.6km/h 49% 0.00in /  0mm 0.0 W/m2
23:48 45.7 °F /  7.6 °C 28.0 °F /  -2.2 °C 30.39in /  1029hPa Calm     50% 0.00in /  0mm 0.0 W/m2
23:54 45.7 °F /  7.6 °C 28.0 °F /  -2.2 °C 30.39in /  1029hPa Calm     50% 0.00in /  0mm 0.0 W/m2
Olympia, Windhoek, Namibia
Compliments of Weather Underground - 3 mb